Terminal Aerodrome Forecast
Issued by NWS

Home | Current Version | Previous Version | Text Only | Print | Product List | Glossary On
Versions: 1 2 3 4 5 6 7 8 9 10 11 12 13 14 15 16 17
000
FTUS41 KBTV 310539
TAFMPV
TAF
KMPV 310539Z 3106/0106 32010G18KT 2SM -SN BR SCT013 OVC035
      TEMPO 3106/3110 1 1/2SM -SN BR BKN013 OVC035
     FM311000 32010G18KT P6SM SCT015 OVC035
     FM311400 32012G20KT P6SM SCT035
     FM312300 32007KT P6SM SKC
     FM010300 32004KT P6SM BKN070=

USA.gov is the U.S. government's official web portal to all federal, state and local government web resources and services.